sensor_id;sensor_type;location;lat;lon;timestamp;temperature;humidity
13744;DHT22;6943;52.368;9.966;2024-02-26T00:02:23;2.90;99.90
13744;DHT22;6943;52.368;9.966;2024-02-26T00:04:49;2.70;99.90
13744;DHT22;6943;52.368;9.966;2024-02-26T01:25:12;2.50;99.90
13744;DHT22;6943;52.368;9.966;2024-02-26T01:32:32;2.70;99.90
13744;DHT22;6943;52.368;9.966;2024-02-26T01:37:24;2.70;99.90
13744;DHT22;6943;52.368;9.966;2024-02-26T01:42:16;2.80;99.90
13744;DHT22;6943;52.368;9.966;2024-02-26T01:44:41;2.70;99.90
13744;DHT22;6943;52.368;9.966;2024-02-26T02:01:48;2.90;99.90
13744;DHT22;6943;52.368;9.966;2024-02-26T02:23:44;2.90;99.90
13744;DHT22;6943;52.368;9.966;2024-02-26T02:28:38;3.20;99.90
13744;DHT22;6943;52.368;9.966;2024-02-26T02:31:05;3.10;99.90
13744;DHT22;6943;52.368;9.966;2024-02-26T02:33:30;3.00;99.90
13744;DHT22;6943;52.368;9.966;2024-02-26T02:35:56;3.00;99.90
13744;DHT22;6943;52.368;9.966;2024-02-26T02:55:25;2.60;99.90
13744;DHT22;6943;52.368;9.966;2024-02-26T03:19:46;2.40;99.90
13744;DHT22;6943;52.368;9.966;2024-02-26T03:22:12;2.40;99.90
13744;DHT22;6943;52.368;9.966;2024-02-26T03:27:04;2.30;99.90
13744;DHT22;6943;52.368;9.966;2024-02-26T03:29:35;2.90;99.90
13744;DHT22;6943;52.368;9.966;2024-02-26T03:32:01;2.40;99.90
13744;DHT22;6943;52.368;9.966;2024-02-26T03:41:44;2.50;99.90
13744;DHT22;6943;52.368;9.966;2024-02-26T03:44:10;2.40;99.90
13744;DHT22;6943;52.368;9.966;2024-02-26T03:46:35;2.40;99.90
13744;DHT22;6943;52.368;9.966;2024-02-26T03:49:01;2.30;99.90
13744;DHT22;6943;52.368;9.966;2024-02-26T03:51:26;2.30;99.90
13744;DHT22;6943;52.368;9.966;2024-02-26T03:58:48;2.40;99.90
13744;DHT22;6943;52.368;9.966;2024-02-26T04:01:14;2.40;99.90
13744;DHT22;6943;52.368;9.966;2024-02-26T04:03:39;2.50;99.90
13744;DHT22;6943;52.368;9.966;2024-02-26T04:06:08;2.40;99.90
13744;DHT22;6943;52.368;9.966;2024-02-26T04:08:33;2.50;99.90
13744;DHT22;6943;52.368;9.966;2024-02-26T04:10:58;2.40;99.90
13744;DHT22;6943;52.368;9.966;2024-02-26T05:26:25;2.50;99.90
13744;DHT22;6943;52.368;9.966;2024-02-26T05:28:50;2.40;99.90
13744;DHT22;6943;52.368;9.966;2024-02-26T05:31:16;2.40;99.90
13744;DHT22;6943;52.368;9.966;2024-02-26T05:41:00;2.70;99.90
13744;DHT22;6943;52.368;9.966;2024-02-26T05:43:26;2.70;99.90
13744;DHT22;6943;52.368;9.966;2024-02-26T05:45:52;3.10;99.90
13744;DHT22;6943;52.368;9.966;2024-02-26T05:53:10;2.70;99.90
13744;DHT22;6943;52.368;9.966;2024-02-26T05:55:36;2.70;99.90
13744;DHT22;6943;52.368;9.966;2024-02-26T05:58:01;2.60;99.90
13744;DHT22;6943;52.368;9.966;2024-02-26T06:00:27;2.90;99.90
13744;DHT22;6943;52.368;9.966;2024-02-26T06:07:44;2.60;99.90
13744;DHT22;6943;52.368;9.966;2024-02-26T06:10:10;2.90;99.90
13744;DHT22;6943;52.368;9.966;2024-02-26T06:17:29;2.90;99.90
13744;DHT22;6943;52.368;9.966;2024-02-26T06:19:55;2.40;99.90
13744;DHT22;6943;52.368;9.966;2024-02-26T06:24:46;2.90;99.90
13744;DHT22;6943;52.368;9.966;2024-02-26T06:27:11;2.80;99.90
13744;DHT22;6943;52.368;9.966;2024-02-26T06:29:37;2.80;99.90
13744;DHT22;6943;52.368;9.966;2024-02-26T06:32:03;2.80;99.90
13744;DHT22;6943;52.368;9.966;2024-02-26T06:34:28;2.90;99.90
13744;DHT22;6943;52.368;9.966;2024-02-26T06:36:54;2.90;99.90
13744;DHT22;6943;52.368;9.966;2024-02-26T06:46:39;3.10;99.90
13744;DHT22;6943;52.368;9.966;2024-02-26T06:49:05;2.60;99.90
13744;DHT22;6943;52.368;9.966;2024-02-26T07:08:32;3.50;99.90
13744;DHT22;6943;52.368;9.966;2024-02-26T07:10:58;3.30;99.90
13744;DHT22;6943;52.368;9.966;2024-02-26T07:13:23;3.20;99.90
13744;DHT22;6943;52.368;9.966;2024-02-26T07:15:49;3.30;99.90
13744;DHT22;6943;52.368;9.966;2024-02-26T07:18:14;3.40;99.90
13744;DHT22;6943;52.368;9.966;2024-02-26T07:23:06;3.50;99.90
13744;DHT22;6943;52.368;9.966;2024-02-26T07:25:32;3.50;99.90
13744;DHT22;6943;52.368;9.966;2024-02-26T07:27:57;3.40;99.90
13744;DHT22;6943;52.368;9.966;2024-02-26T07:30:23;3.50;99.90
13744;DHT22;6943;52.368;9.966;2024-02-26T07:42:35;3.80;99.90
13744;DHT22;6943;52.368;9.966;2024-02-26T07:45:00;4.00;99.90
13744;DHT22;6943;52.368;9.966;2024-02-26T07:47:26;4.00;99.90
13744;DHT22;6943;52.368;9.966;2024-02-26T07:54:43;4.20;99.90
13744;DHT22;6943;52.368;9.966;2024-02-26T08:06:54;3.80;99.90
13744;DHT22;6943;52.368;9.966;2024-02-26T08:14:11;4.10;99.90
13744;DHT22;6943;52.368;9.966;2024-02-26T08:16:37;4.20;99.90
13744;DHT22;6943;52.368;9.966;2024-02-26T08:19:02;4.30;99.90
13744;DHT22;6943;52.368;9.966;2024-02-26T08:21:28;4.30;99.90
13744;DHT22;6943;52.368;9.966;2024-02-26T08:23:53;4.40;99.90
13744;DHT22;6943;52.368;9.966;2024-02-26T08:45:49;4.80;99.90
13744;DHT22;6943;52.368;9.966;2024-02-26T08:48:14;4.90;99.90
13744;DHT22;6943;52.368;9.966;2024-02-26T08:50:40;5.10;99.90
13744;DHT22;6943;52.368;9.966;2024-02-26T08:53:06;5.20;99.90
13744;DHT22;6943;52.368;9.966;2024-02-26T08:55:32;5.10;99.90
13744;DHT22;6943;52.368;9.966;2024-02-26T08:57:58;5.20;99.90
13744;DHT22;6943;52.368;9.966;2024-02-26T09:00:23;5.20;99.90
13744;DHT22;6943;52.368;9.966;2024-02-26T09:02:49;5.00;99.90
13744;DHT22;6943;52.368;9.966;2024-02-26T09:05:14;5.20;99.90
13744;DHT22;6943;52.368;9.966;2024-02-26T09:07:40;5.20;99.90
13744;DHT22;6943;52.368;9.966;2024-02-26T09:10:06;5.30;99.90
13744;DHT22;6943;52.368;9.966;2024-02-26T09:12:34;5.30;99.90
13744;DHT22;6943;52.368;9.966;2024-02-26T09:14:59;5.20;99.90
13744;DHT22;6943;52.368;9.966;2024-02-26T09:17:25;5.10;99.90
13744;DHT22;6943;52.368;9.966;2024-02-26T09:19:50;5.30;99.90
13744;DHT22;6943;52.368;9.966;2024-02-26T09:22:16;5.30;99.90
13744;DHT22;6943;52.368;9.966;2024-02-26T09:24:41;5.20;99.90
13744;DHT22;6943;52.368;9.966;2024-02-26T09:27:07;5.70;99.90
13744;DHT22;6943;52.368;9.966;2024-02-26T09:29:32;5.70;99.90
13744;DHT22;6943;52.368;9.966;2024-02-26T09:32:00;5.70;99.90
13744;DHT22;6943;52.368;9.966;2024-02-26T09:34:26;5.70;99.90
13744;DHT22;6943;52.368;9.966;2024-02-26T09:36:51;5.80;99.90
13744;DHT22;6943;52.368;9.966;2024-02-26T09:39:17;5.70;99.90
13744;DHT22;6943;52.368;9.966;2024-02-26T09:41:47;5.80;99.90
13744;DHT22;6943;52.368;9.966;2024-02-26T09:44:18;5.80;99.90
13744;DHT22;6943;52.368;9.966;2024-02-26T09:46:45;6.00;99.90
13744;DHT22;6943;52.368;9.966;2024-02-26T09:49:11;6.00;99.90
13744;DHT22;6943;52.368;9.966;2024-02-26T09:51:38;6.10;99.90
13744;DHT22;6943;52.368;9.966;2024-02-26T09:54:03;6.10;99.90
13744;DHT22;6943;52.368;9.966;2024-02-26T09:56:29;6.20;99.90
13744;DHT22;6943;52.368;9.966;2024-02-26T09:58:56;5.90;99.90
13744;DHT22;6943;52.368;9.966;2024-02-26T10:01:23;6.30;99.90
13744;DHT22;6943;52.368;9.966;2024-02-26T10:03:57;6.10;99.90
13744;DHT22;6943;52.368;9.966;2024-02-26T10:06:25;6.30;99.90
13744;DHT22;6943;52.368;9.966;2024-02-26T10:08:51;6.60;99.90
13744;DHT22;6943;52.368;9.966;2024-02-26T10:11:18;6.10;99.90
13744;DHT22;6943;52.368;9.966;2024-02-26T10:13:43;6.40;99.90
13744;DHT22;6943;52.368;9.966;2024-02-26T10:16:08;6.40;99.90
13744;DHT22;6943;52.368;9.966;2024-02-26T10:18:51;6.60;99.90
13744;DHT22;6943;52.368;9.966;2024-02-26T10:21:18;6.60;99.90
13744;DHT22;6943;52.368;9.966;2024-02-26T10:23:45;6.70;99.90
13744;DHT22;6943;52.368;9.966;2024-02-26T10:26:14;6.80;99.90
13744;DHT22;6943;52.368;9.966;2024-02-26T10:28:42;6.70;99.90
13744;DHT22;6943;52.368;9.966;2024-02-26T10:31:09;6.60;99.90
13744;DHT22;6943;52.368;9.966;2024-02-26T10:33:38;5.70;99.90
13744;DHT22;6943;52.368;9.966;2024-02-26T10:36:05;6.80;99.90
13744;DHT22;6943;52.368;9.966;2024-02-26T10:38:32;7.30;99.90
13744;DHT22;6943;52.368;9.966;2024-02-26T10:40:58;7.50;99.90
13744;DHT22;6943;52.368;9.966;2024-02-26T10:43:24;7.40;99.90
13744;DHT22;6943;52.368;9.966;2024-02-26T10:45:50;7.20;99.90
13744;DHT22;6943;52.368;9.966;2024-02-26T10:48:15;7.30;99.90
13744;DHT22;6943;52.368;9.966;2024-02-26T10:50:43;7.60;99.90
13744;DHT22;6943;52.368;9.966;2024-02-26T10:53:15;7.30;99.90
13744;DHT22;6943;52.368;9.966;2024-02-26T10:55:42;7.20;99.90
13744;DHT22;6943;52.368;9.966;2024-02-26T10:58:10;7.40;99.90
13744;DHT22;6943;52.368;9.966;2024-02-26T11:00:38;7.40;99.90
13744;DHT22;6943;52.368;9.966;2024-02-26T11:03:05;7.50;99.90
13744;DHT22;6943;52.368;9.966;2024-02-26T11:05:31;7.10;99.90
13744;DHT22;6943;52.368;9.966;2024-02-26T11:07:59;7.10;99.90
13744;DHT22;6943;52.368;9.966;2024-02-26T11:10:25;7.20;99.90
13744;DHT22;6943;52.368;9.966;2024-02-26T11:12:52;7.30;99.90
13744;DHT22;6943;52.368;9.966;2024-02-26T11:15:19;7.30;99.90
13744;DHT22;6943;52.368;9.966;2024-02-26T11:17:46;7.40;99.90
13744;DHT22;6943;52.368;9.966;2024-02-26T11:20:14;7.40;99.90
13744;DHT22;6943;52.368;9.966;2024-02-26T11:22:40;7.50;99.90
13744;DHT22;6943;52.368;9.966;2024-02-26T11:25:06;7.80;99.90
13744;DHT22;6943;52.368;9.966;2024-02-26T11:27:36;7.90;99.90
13744;DHT22;6943;52.368;9.966;2024-02-26T11:30:03;8.20;99.90
13744;DHT22;6943;52.368;9.966;2024-02-26T11:32:31;7.90;99.90
13744;DHT22;6943;52.368;9.966;2024-02-26T11:34:58;7.80;99.90
13744;DHT22;6943;52.368;9.966;2024-02-26T11:37:23;8.10;99.90
13744;DHT22;6943;52.368;9.966;2024-02-26T11:39:51;7.90;99.90
13744;DHT22;6943;52.368;9.966;2024-02-26T11:42:17;7.80;99.90
13744;DHT22;6943;52.368;9.966;2024-02-26T11:44:43;8.20;99.90
13744;DHT22;6943;52.368;9.966;2024-02-26T11:47:27;8.10;99.90
13744;DHT22;6943;52.368;9.966;2024-02-26T11:49:52;8.20;99.90
13744;DHT22;6943;52.368;9.966;2024-02-26T11:52:18;8.40;99.90
13744;DHT22;6943;52.368;9.966;2024-02-26T11:54:51;8.30;99.90
13744;DHT22;6943;52.368;9.966;2024-02-26T11:59:49;8.10;99.90
13744;DHT22;6943;52.368;9.966;2024-02-26T12:05:15;8.70;99.90
13744;DHT22;6943;52.368;9.966;2024-02-26T12:07:46;8.40;99.90
13744;DHT22;6943;52.368;9.966;2024-02-26T12:13:05;8.30;99.90
13744;DHT22;6943;52.368;9.966;2024-02-26T12:15:33;8.20;99.90
13744;DHT22;6943;52.368;9.966;2024-02-26T12:18:03;8.30;99.90
13744;DHT22;6943;52.368;9.966;2024-02-26T12:20:30;8.90;99.90
13744;DHT22;6943;52.368;9.966;2024-02-26T12:22:56;8.70;99.90
13744;DHT22;6943;52.368;9.966;2024-02-26T12:25:26;9.00;99.90
13744;DHT22;6943;52.368;9.966;2024-02-26T12:27:55;9.30;99.90
13744;DHT22;6943;52.368;9.966;2024-02-26T12:30:21;9.10;99.90
13744;DHT22;6943;52.368;9.966;2024-02-26T12:32:49;9.20;99.90
13744;DHT22;6943;52.368;9.966;2024-02-26T12:35:15;8.80;99.90
13744;DHT22;6943;52.368;9.966;2024-02-26T12:37:42;9.20;99.90
13744;DHT22;6943;52.368;9.966;2024-02-26T12:40:11;8.90;99.90
13744;DHT22;6943;52.368;9.966;2024-02-26T12:42:38;9.30;99.90
13744;DHT22;6943;52.368;9.966;2024-02-26T12:45:09;9.40;99.90
13744;DHT22;6943;52.368;9.966;2024-02-26T12:47:38;9.20;99.90
13744;DHT22;6943;52.368;9.966;2024-02-26T12:50:05;9.40;99.90
13744;DHT22;6943;52.368;9.966;2024-02-26T12:52:35;9.30;99.90
13744;DHT22;6943;52.368;9.966;2024-02-26T12:55:02;9.40;99.90
13744;DHT22;6943;52.368;9.966;2024-02-26T12:57:30;9.70;99.90
13744;DHT22;6943;52.368;9.966;2024-02-26T12:59:56;9.50;99.90
13744;DHT22;6943;52.368;9.966;2024-02-26T13:02:22;9.40;99.90
13744;DHT22;6943;52.368;9.966;2024-02-26T13:04:48;9.10;99.90
13744;DHT22;6943;52.368;9.966;2024-02-26T13:07:14;9.60;99.90
13744;DHT22;6943;52.368;9.966;2024-02-26T13:09:39;9.80;99.90
13744;DHT22;6943;52.368;9.966;2024-02-26T13:12:06;9.60;99.90
13744;DHT22;6943;52.368;9.966;2024-02-26T13:14:31;9.60;99.90
13744;DHT22;6943;52.368;9.966;2024-02-26T13:16:59;9.80;99.90
13744;DHT22;6943;52.368;9.966;2024-02-26T13:19:25;9.20;99.90
13744;DHT22;6943;52.368;9.966;2024-02-26T13:21:51;9.20;99.90
13744;DHT22;6943;52.368;9.966;2024-02-26T13:24:17;9.30;99.90
13744;DHT22;6943;52.368;9.966;2024-02-26T13:26:44;9.00;99.90
13744;DHT22;6943;52.368;9.966;2024-02-26T13:29:19;9.00;99.90
13744;DHT22;6943;52.368;9.966;2024-02-26T13:31:44;9.20;99.90
13744;DHT22;6943;52.368;9.966;2024-02-26T13:34:10;9.00;99.90
13744;DHT22;6943;52.368;9.966;2024-02-26T13:36:35;8.90;99.90
13744;DHT22;6943;52.368;9.966;2024-02-26T13:39:01;8.80;99.90
13744;DHT22;6943;52.368;9.966;2024-02-26T13:41:30;8.80;99.90
13744;DHT22;6943;52.368;9.966;2024-02-26T13:43:55;8.70;99.90
13744;DHT22;6943;52.368;9.966;2024-02-26T13:46:23;8.60;99.90
13744;DHT22;6943;52.368;9.966;2024-02-26T13:48:48;8.90;99.90
13744;DHT22;6943;52.368;9.966;2024-02-26T13:51:14;9.10;99.90
13744;DHT22;6943;52.368;9.966;2024-02-26T13:53:40;10.10;99.90
13744;DHT22;6943;52.368;9.966;2024-02-26T13:56:05;8.80;99.90
13744;DHT22;6943;52.368;9.966;2024-02-26T13:58:32;8.90;99.90
13744;DHT22;6943;52.368;9.966;2024-02-26T14:00:57;8.70;99.90
13744;DHT22;6943;52.368;9.966;2024-02-26T14:03:24;8.60;99.90
13744;DHT22;6943;52.368;9.966;2024-02-26T14:05:50;8.70;99.90
13744;DHT22;6943;52.368;9.966;2024-02-26T14:08:15;8.40;99.90
13744;DHT22;6943;52.368;9.966;2024-02-26T14:10:41;9.10;99.90
13744;DHT22;6943;52.368;9.966;2024-02-26T14:13:07;8.20;99.90
13744;DHT22;6943;52.368;9.966;2024-02-26T14:15:33;8.90;99.90
13744;DHT22;6943;52.368;9.966;2024-02-26T14:18:00;8.50;99.90
13744;DHT22;6943;52.368;9.966;2024-02-26T14:20:28;8.60;99.90
13744;DHT22;6943;52.368;9.966;2024-02-26T14:22:53;8.50;99.90
13744;DHT22;6943;52.368;9.966;2024-02-26T14:25:22;8.50;99.90
13744;DHT22;6943;52.368;9.966;2024-02-26T14:27:48;8.70;99.90
13744;DHT22;6943;52.368;9.966;2024-02-26T14:30:14;8.60;99.90
13744;DHT22;6943;52.368;9.966;2024-02-26T14:32:40;8.70;99.90
13744;DHT22;6943;52.368;9.966;2024-02-26T14:35:06;8.60;99.90
13744;DHT22;6943;52.368;9.966;2024-02-26T14:37:32;8.70;99.90
13744;DHT22;6943;52.368;9.966;2024-02-26T14:39:58;8.60;99.90
13744;DHT22;6943;52.368;9.966;2024-02-26T14:42:23;8.70;99.90
13744;DHT22;6943;52.368;9.966;2024-02-26T14:44:49;8.70;99.90
13744;DHT22;6943;52.368;9.966;2024-02-26T14:47:16;8.40;99.90
13744;DHT22;6943;52.368;9.966;2024-02-26T14:49:42;8.70;99.90
13744;DHT22;6943;52.368;9.966;2024-02-26T14:52:07;8.40;99.90
13744;DHT22;6943;52.368;9.966;2024-02-26T14:54:33;8.60;99.90
13744;DHT22;6943;52.368;9.966;2024-02-26T14:57:03;8.50;99.90
13744;DHT22;6943;52.368;9.966;2024-02-26T14:59:30;8.70;99.90
13744;DHT22;6943;52.368;9.966;2024-02-26T15:01:56;8.40;99.90
13744;DHT22;6943;52.368;9.966;2024-02-26T15:04:22;8.40;99.90
13744;DHT22;6943;52.368;9.966;2024-02-26T15:06:48;8.60;99.90
13744;DHT22;6943;52.368;9.966;2024-02-26T15:09:13;8.70;99.90
13744;DHT22;6943;52.368;9.966;2024-02-26T15:14:06;8.80;99.90
13744;DHT22;6943;52.368;9.966;2024-02-26T15:28:44;8.20;99.90
13744;DHT22;6943;52.368;9.966;2024-02-26T15:31:09;8.40;99.90
13744;DHT22;6943;52.368;9.966;2024-02-26T15:33:36;7.60;99.90
13744;DHT22;6943;52.368;9.966;2024-02-26T15:36:01;8.10;99.90
13744;DHT22;6943;52.368;9.966;2024-02-26T15:38:27;8.50;99.90
13744;DHT22;6943;52.368;9.966;2024-02-26T15:43:19;8.00;99.90
13744;DHT22;6943;52.368;9.966;2024-02-26T15:45:47;8.50;99.90
13744;DHT22;6943;52.368;9.966;2024-02-26T22:10:13;5.70;99.90
13744;DHT22;6943;52.368;9.966;2024-02-26T22:12:39;6.00;99.90
13744;DHT22;6943;52.368;9.966;2024-02-26T22:15:05;5.60;99.90
13744;DHT22;6943;52.368;9.966;2024-02-26T22:17:35;5.60;99.90
13744;DHT22;6943;52.368;9.966;2024-02-26T22:20:07;5.50;99.90
13744;DHT22;6943;52.368;9.966;2024-02-26T22:32:27;5.60;99.90
13744;DHT22;6943;52.368;9.966;2024-02-26T23:01:51;5.30;99.90
13744;DHT22;6943;52.368;9.966;2024-02-26T23:09:12;5.30;99.90
13744;DHT22;6943;52.368;9.966;2024-02-26T23:16:30;5.30;99.90
13744;DHT22;6943;52.368;9.966;2024-02-26T23:18:56;5.20;99.90
13744;DHT22;6943;52.368;9.966;2024-02-26T23:21:21;5.30;99.90
13744;DHT22;6943;52.368;9.966;2024-02-26T23:23:47;5.30;99.90
13744;DHT22;6943;52.368;9.966;2024-02-26T23:26:12;5.10;99.90
13744;DHT22;6943;52.368;9.966;2024-02-26T23:28:38;5.20;99.90
13744;DHT22;6943;52.368;9.966;2024-02-26T23:31:04;5.20;99.90
13744;DHT22;6943;52.368;9.966;2024-02-26T23:33:31;5.10;99.90
13744;DHT22;6943;52.368;9.966;2024-02-26T23:35:57;5.10;99.90
13744;DHT22;6943;52.368;9.966;2024-02-26T23:38:22;5.00;99.90
13744;DHT22;6943;52.368;9.966;2024-02-26T23:40:48;5.00;99.90
13744;DHT22;6943;52.368;9.966;2024-02-26T23:43:13;5.00;99.90
13744;DHT22;6943;52.368;9.966;2024-02-26T23:45:39;5.00;99.90
13744;DHT22;6943;52.368;9.966;2024-02-26T23:48:04;4.90;99.90
13744;DHT22;6943;52.368;9.966;2024-02-26T23:50:30;5.00;99.90
13744;DHT22;6943;52.368;9.966;2024-02-26T23:52:57;4.70;99.90
13744;DHT22;6943;52.368;9.966;2024-02-26T23:55:22;5.00;99.90
13744;DHT22;6943;52.368;9.966;2024-02-26T23:57:48;4.90;99.90
